createdAt,value
2023-11-27T00:02:36.720Z,16.30
2023-11-27T00:06:03.210Z,15.60
2023-11-27T00:09:29.660Z,14.20
2023-11-27T00:13:01.061Z,12.70
2023-11-27T00:16:27.769Z,16.00
2023-11-27T00:19:54.621Z,18.10
2023-11-27T00:23:21.363Z,21.60
2023-11-27T00:26:47.754Z,21.10
2023-11-27T00:30:14.533Z,18.30
2023-11-27T00:33:42.579Z,16.60
2023-11-27T00:37:09.105Z,17.70
2023-11-27T00:40:38.364Z,17.10
2023-11-27T00:44:04.899Z,13.30
2023-11-27T00:47:31.519Z,16.40
2023-11-27T00:50:58.457Z,17.20
2023-11-27T00:54:24.646Z,16.30
2023-11-27T00:57:50.823Z,13.30
2023-11-27T01:01:17.734Z,15.10
2023-11-27T01:04:44.483Z,12.40
2023-11-27T01:08:14.050Z,11.40
2023-11-27T01:11:40.644Z,13.30
2023-11-27T01:15:09.581Z,11.60
2023-11-27T01:18:35.920Z,12.90
2023-11-27T01:22:02.648Z,14.70
2023-11-27T01:25:29.009Z,14.80
2023-11-27T01:28:55.540Z,12.50
2023-11-27T01:32:21.575Z,14.00
2023-11-27T01:35:47.957Z,14.60
2023-11-27T01:39:13.809Z,16.00
2023-11-27T01:42:41.794Z,12.50
2023-11-27T01:46:24.495Z,12.60
2023-11-27T01:49:51.342Z,14.20
2023-11-27T01:53:17.442Z,15.30
2023-11-27T01:56:49.149Z,12.70
2023-11-27T02:00:17.838Z,12.70
2023-11-27T02:03:44.236Z,15.60
2023-11-27T02:07:10.883Z,14.80
2023-11-27T02:10:36.721Z,16.50
2023-11-27T02:14:03.154Z,14.30
2023-11-27T02:17:29.180Z,18.40
2023-11-27T02:21:02.032Z,13.50
2023-11-27T02:24:28.038Z,11.60
2023-11-27T02:27:54.162Z,13.70
2023-11-27T02:31:20.498Z,13.00
2023-11-27T02:34:50.440Z,12.30
2023-11-27T02:38:17.319Z,14.00
2023-11-27T02:41:43.856Z,15.30
2023-11-27T02:45:12.977Z,11.70
2023-11-27T02:48:41.310Z,12.80
2023-11-27T02:52:08.976Z,13.00
2023-11-27T02:55:35.464Z,14.50
2023-11-27T02:59:02.341Z,12.20
2023-11-27T03:02:29.034Z,13.80
2023-11-27T03:05:55.240Z,14.30
2023-11-27T03:09:23.321Z,15.20
2023-11-27T03:12:49.909Z,13.20
2023-11-27T03:16:17.173Z,10.30
2023-11-27T03:19:47.963Z,15.20
2023-11-27T03:23:16.067Z,12.70
2023-11-27T03:26:42.657Z,10.80
2023-11-27T03:30:11.137Z,14.90
2023-11-27T03:33:37.747Z,12.00
2023-11-27T03:37:04.246Z,15.60
2023-11-27T03:40:30.520Z,13.50
2023-11-27T03:43:57.081Z,10.50
2023-11-27T03:47:24.223Z,11.20
2023-11-27T03:50:50.888Z,12.40
2023-11-27T03:54:17.013Z,10.00
2023-11-27T03:57:43.884Z,12.50
2023-11-27T04:01:17.092Z,12.50
2023-11-27T04:04:43.993Z,13.90
2023-11-27T04:08:10.612Z,13.60
2023-11-27T04:11:37.914Z,11.30
2023-11-27T04:15:05.745Z,11.50
2023-11-27T04:18:32.175Z,12.80
2023-11-27T04:21:58.127Z,12.30
2023-11-27T04:25:24.545Z,12.70
2023-11-27T04:28:51.019Z,15.50
2023-11-27T04:32:17.458Z,14.00
2023-11-27T04:35:43.574Z,18.90
2023-11-27T04:39:12.511Z,14.10
2023-11-27T04:42:39.684Z,17.20
2023-11-27T04:46:08.765Z,15.40
2023-11-27T04:49:35.405Z,15.40
2023-11-27T04:53:01.671Z,14.70
2023-11-27T04:56:28.265Z,14.10
2023-11-27T04:59:54.956Z,16.10
2023-11-27T05:03:21.951Z,24.00
2023-11-27T05:06:48.676Z,28.50
2023-11-27T05:10:17.096Z,17.20
2023-11-27T05:13:43.694Z,19.80
2023-11-27T05:17:10.590Z,17.20
2023-11-27T05:20:37.695Z,16.30
2023-11-27T05:24:04.142Z,14.70
2023-11-27T05:27:30.465Z,13.80
2023-11-27T05:30:56.565Z,19.80
2023-11-27T05:34:23.707Z,19.00
2023-11-27T05:37:50.148Z,19.20
2023-11-27T05:41:17.156Z,16.50
2023-11-27T05:44:44.510Z,15.00
2023-11-27T05:48:10.613Z,13.30
2023-11-27T05:51:41.178Z,14.80
2023-11-27T05:55:09.281Z,14.20
2023-11-27T05:58:36.781Z,17.60
2023-11-27T06:02:03.384Z,18.10
2023-11-27T06:05:29.964Z,18.30
2023-11-27T06:08:56.234Z,16.80
2023-11-27T06:12:25.035Z,15.00
2023-11-27T06:15:52.085Z,17.50
2023-11-27T06:19:19.637Z,19.80
2023-11-27T06:22:46.207Z,20.70
2023-11-27T06:26:14.824Z,16.40
2023-11-27T06:29:41.624Z,16.50
2023-11-27T06:33:09.074Z,18.40
2023-11-27T06:36:35.703Z,15.00
2023-11-27T06:40:02.815Z,15.10
2023-11-27T06:43:29.684Z,15.10
2023-11-27T06:46:56.296Z,18.90
2023-11-27T06:50:23.113Z,14.30
2023-11-27T06:53:51.808Z,16.50
2023-11-27T06:57:18.083Z,17.40
2023-11-27T07:00:44.336Z,18.20
2023-11-27T07:04:22.278Z,16.00
2023-11-27T07:07:48.292Z,18.00
2023-11-27T07:11:14.689Z,15.60
2023-11-27T07:14:41.156Z,16.80
2023-11-27T07:18:16.777Z,17.80
2023-11-27T07:21:47.054Z,16.50
2023-11-27T07:25:14.740Z,16.40
2023-11-27T07:28:42.951Z,16.00
2023-11-27T07:32:10.417Z,17.70
2023-11-27T07:35:36.653Z,18.80
2023-11-27T07:39:04.231Z,20.80
2023-11-27T07:42:30.058Z,17.20
2023-11-27T07:45:56.474Z,17.50
2023-11-27T07:49:22.893Z,14.70
2023-11-27T07:52:50.319Z,15.40
2023-11-27T07:56:26.477Z,13.30
2023-11-27T07:59:53.034Z,17.90
2023-11-27T08:03:19.338Z,15.30
2023-11-27T08:06:46.296Z,16.40
2023-11-27T08:10:13.192Z,18.70
2023-11-27T08:13:39.714Z,19.30
2023-11-27T08:17:06.959Z,20.70
2023-11-27T08:20:33.912Z,17.20
2023-11-27T08:24:00.453Z,19.50
2023-11-27T08:27:27.818Z,17.10
2023-11-27T08:30:54.269Z,17.60
2023-11-27T08:34:23.570Z,17.40
2023-11-27T08:37:50.787Z,15.20
2023-11-27T08:41:16.830Z,13.70
2023-11-27T08:44:43.686Z,14.00
2023-11-27T08:48:10.216Z,14.00
2023-11-27T08:51:36.224Z,16.90
2023-11-27T08:55:02.914Z,14.30
2023-11-27T08:58:30.240Z,18.10
2023-11-27T09:01:57.623Z,18.90
2023-11-27T09:05:25.616Z,16.90
2023-11-27T09:08:51.992Z,16.60
2023-11-27T09:12:18.350Z,19.50
2023-11-27T09:15:45.460Z,14.80
2023-11-27T09:19:13.572Z,14.30
2023-11-27T09:22:40.051Z,14.50
2023-11-27T09:26:06.776Z,12.90
2023-11-27T09:29:33.610Z,14.90
2023-11-27T09:32:59.920Z,11.60
2023-11-27T09:36:28.099Z,11.70
2023-11-27T09:39:54.542Z,12.10
2023-11-27T09:43:20.546Z,11.20
2023-11-27T09:46:48.638Z,11.40
2023-11-27T09:50:17.245Z,9.70
2023-11-27T09:53:49.125Z,10.10
2023-11-27T09:57:15.576Z,9.70
2023-11-27T10:00:45.154Z,9.70
2023-11-27T10:04:12.755Z,8.70
2023-11-27T10:07:39.079Z,10.00
2023-11-27T10:11:05.872Z,12.30
2023-11-27T10:14:37.756Z,8.80
2023-11-27T10:18:09.949Z,11.10
2023-11-27T10:21:37.892Z,12.70
2023-11-27T10:25:06.468Z,13.80
2023-11-27T10:28:47.023Z,16.30
2023-11-27T10:32:14.726Z,13.50
2023-11-27T10:35:43.751Z,13.20
2023-11-27T10:39:16.604Z,13.40
2023-11-27T10:42:49.314Z,14.20
2023-11-27T10:46:15.639Z,11.10
2023-11-27T10:49:43.317Z,16.90
2023-11-27T10:53:11.491Z,14.00
2023-11-27T10:56:40.172Z,11.00
2023-11-27T11:00:09.538Z,10.90
2023-11-27T11:03:38.708Z,10.60
2023-11-27T11:07:20.540Z,9.40
2023-11-27T11:10:49.237Z,15.70
2023-11-27T11:14:17.506Z,14.00
2023-11-27T11:17:56.760Z,12.50
2023-11-27T11:21:45.626Z,11.20
2023-11-27T11:25:29.615Z,12.90
2023-11-27T11:29:13.113Z,11.00
2023-11-27T11:32:41.854Z,13.80
2023-11-27T11:36:14.061Z,15.30
2023-11-27T11:39:42.387Z,11.90
2023-11-27T11:43:11.858Z,8.80
2023-11-27T11:46:41.935Z,7.90
2023-11-27T11:50:28.958Z,11.30
2023-11-27T11:53:56.241Z,9.60
2023-11-27T11:57:25.944Z,12.60
2023-11-27T12:01:02.657Z,11.30
2023-11-27T12:04:29.574Z,10.60
2023-11-27T12:07:58.282Z,9.50
2023-11-27T12:11:25.321Z,12.00
2023-11-27T12:14:55.721Z,12.60
2023-11-27T12:18:22.538Z,11.20
2023-11-27T12:21:49.648Z,12.00
2023-11-27T12:25:19.663Z,17.40
2023-11-27T12:28:48.364Z,19.40
2023-11-27T12:32:15.034Z,15.20
2023-11-27T12:35:41.448Z,13.50
2023-11-27T12:39:12.554Z,13.20
2023-11-27T12:42:42.294Z,11.40
2023-11-27T12:46:14.956Z,11.80
2023-11-27T12:49:48.313Z,17.70
2023-11-27T12:53:14.994Z,13.30
2023-11-27T12:56:42.589Z,15.40
2023-11-27T13:00:14.715Z,14.40
2023-11-27T13:03:42.180Z,14.10
2023-11-27T13:07:11.220Z,14.60
2023-11-27T13:10:44.481Z,14.50
2023-11-27T13:14:11.591Z,14.40
2023-11-27T13:17:39.273Z,13.50
2023-11-27T13:21:10.524Z,16.10
2023-11-27T13:24:39.694Z,16.80
2023-11-27T13:28:09.341Z,17.10
2023-11-27T13:31:38.531Z,18.00
2023-11-27T13:35:05.578Z,19.30
2023-11-27T13:38:31.554Z,20.10
2023-11-27T13:41:57.941Z,19.30
2023-11-27T13:45:34.013Z,19.00
2023-11-27T13:49:00.364Z,15.30
2023-11-27T13:52:32.043Z,15.20
2023-11-27T13:56:04.289Z,15.80
2023-11-27T13:59:36.777Z,9.50
2023-11-27T14:03:04.566Z,8.10
2023-11-27T14:06:30.671Z,9.10
2023-11-27T14:10:04.159Z,8.10
2023-11-27T14:13:32.261Z,7.70
2023-11-27T14:17:18.391Z,7.20
2023-11-27T14:21:15.134Z,7.70
2023-11-27T14:24:59.239Z,8.00
2023-11-27T14:28:44.308Z,8.30
2023-11-27T14:32:10.574Z,14.60
2023-11-27T14:35:36.725Z,18.10
2023-11-27T14:39:03.593Z,12.60
2023-11-27T14:42:30.720Z,16.20
2023-11-27T14:45:56.576Z,14.10
2023-11-27T14:49:22.884Z,12.10
2023-11-27T14:52:49.173Z,9.50
2023-11-27T14:56:15.577Z,21.40
2023-11-27T14:59:42.440Z,34.30
2023-11-27T15:03:13.557Z,25.10
2023-11-27T15:06:40.686Z,19.00
2023-11-27T15:10:08.483Z,17.90
2023-11-27T15:13:35.704Z,16.40
2023-11-27T15:17:02.621Z,14.50
2023-11-27T15:20:28.737Z,12.70
2023-11-27T15:23:55.119Z,12.70
2023-11-27T15:27:21.530Z,12.10
2023-11-27T15:30:55.506Z,13.00
2023-11-27T15:34:25.382Z,11.20
2023-11-27T15:37:53.349Z,11.60
2023-11-27T15:41:19.640Z,10.30
2023-11-27T15:44:46.111Z,15.50
2023-11-27T15:48:14.037Z,15.10
2023-11-27T15:51:42.928Z,18.00
2023-11-27T15:55:14.168Z,20.10
2023-11-27T15:58:42.887Z,16.30
2023-11-27T16:02:11.712Z,22.10
2023-11-27T16:05:38.442Z,22.70
2023-11-27T16:09:07.110Z,20.90
2023-11-27T16:12:33.663Z,17.40
2023-11-27T16:16:01.968Z,16.00
2023-11-27T16:19:28.177Z,17.00
2023-11-27T16:22:55.200Z,15.50
2023-11-27T16:26:21.984Z,18.50
2023-11-27T16:29:48.482Z,16.10
2023-11-27T16:33:14.697Z,20.70
2023-11-27T16:36:41.459Z,22.40
2023-11-27T16:40:16.222Z,24.60
2023-11-27T16:43:43.346Z,27.40
2023-11-27T16:47:17.822Z,29.60
2023-11-27T16:50:51.495Z,26.40
2023-11-27T16:54:18.489Z,26.00
2023-11-27T16:57:51.260Z,21.40
2023-11-27T17:01:21.231Z,21.00
2023-11-27T17:04:48.748Z,23.50
2023-11-27T17:08:17.781Z,22.20
2023-11-27T17:11:45.749Z,22.50
2023-11-27T17:15:14.518Z,30.70
2023-11-27T17:18:43.456Z,100.60
2023-11-27T17:22:11.071Z,149.90
2023-11-27T17:25:38.077Z,138.10
2023-11-27T17:29:05.298Z,147.90
2023-11-27T17:32:31.510Z,135.20
2023-11-27T17:35:58.177Z,129.90
2023-11-27T17:39:27.754Z,142.20
2023-11-27T17:42:54.559Z,150.00
2023-11-27T17:46:23.459Z,158.00
2023-11-27T17:49:52.619Z,183.80
2023-11-27T17:53:21.737Z,123.00
2023-11-27T17:56:48.023Z,106.40
2023-11-27T18:00:17.910Z,104.70
2023-11-27T18:03:44.563Z,111.60
2023-11-27T18:07:11.459Z,120.30
2023-11-27T18:10:39.738Z,123.10
2023-11-27T18:14:07.831Z,125.30
2023-11-27T18:17:34.216Z,133.70
2023-11-27T18:21:01.115Z,133.10
2023-11-27T18:24:29.028Z,144.80
2023-11-27T18:27:57.543Z,137.30
2023-11-27T18:31:23.921Z,158.00
2023-11-27T18:34:55.276Z,182.80
2023-11-27T18:38:23.612Z,180.20
2023-11-27T18:41:50.193Z,146.30
2023-11-27T18:45:19.337Z,183.70
2023-11-27T18:48:46.079Z,175.50
2023-11-27T18:52:13.907Z,175.50
2023-11-27T18:55:42.571Z,177.60
2023-11-27T18:59:09.515Z,177.10
2023-11-27T19:02:36.070Z,202.10
2023-11-27T19:06:03.541Z,191.40
2023-11-27T19:09:30.403Z,201.60
2023-11-27T19:12:57.321Z,200.90
2023-11-27T19:16:23.769Z,211.00
2023-11-27T19:19:50.190Z,185.50
2023-11-27T19:23:16.685Z,139.90
2023-11-27T19:26:44.554Z,186.90
2023-11-27T19:30:13.645Z,181.10
2023-11-27T19:33:39.682Z,180.10
2023-11-27T19:37:09.108Z,183.60
2023-11-27T19:40:36.386Z,198.70
2023-11-27T19:44:03.714Z,220.30
2023-11-27T19:47:30.314Z,220.40
2023-11-27T19:50:57.087Z,233.50
2023-11-27T19:54:25.462Z,219.50
2023-11-27T19:57:52.741Z,206.50
2023-11-27T20:01:18.968Z,206.90
2023-11-27T20:04:45.952Z,210.10
2023-11-27T20:08:12.619Z,205.90
2023-11-27T20:11:38.547Z,202.20
2023-11-27T20:15:05.457Z,215.00
2023-11-27T20:18:33.960Z,218.00
2023-11-27T20:22:00.936Z,221.50
2023-11-27T20:25:28.610Z,220.00
2023-11-27T20:28:54.788Z,222.20
2023-11-27T20:32:21.018Z,225.10
2023-11-27T20:35:48.353Z,220.80
2023-11-27T20:39:15.849Z,212.70
2023-11-27T20:42:42.447Z,216.60
2023-11-27T20:46:08.888Z,218.40
2023-11-27T20:49:35.298Z,218.10
2023-11-27T20:53:02.181Z,206.10
2023-11-27T20:56:28.724Z,202.90
2023-11-27T20:59:55.016Z,186.50
2023-11-27T21:03:21.344Z,180.30
2023-11-27T21:06:49.863Z,179.80
2023-11-27T21:10:17.092Z,177.20
2023-11-27T21:13:43.416Z,192.90
2023-11-27T21:17:11.928Z,188.50
2023-11-27T21:20:38.418Z,205.50
2023-11-27T21:24:05.763Z,194.30
2023-11-27T21:27:33.660Z,193.90
2023-11-27T21:31:02.655Z,214.60
2023-11-27T21:34:28.741Z,202.80
2023-11-27T21:37:55.577Z,200.40
2023-11-27T21:41:21.573Z,209.10
2023-11-27T21:44:48.276Z,208.40
2023-11-27T21:48:14.544Z,201.10
2023-11-27T21:51:40.839Z,193.80
2023-11-27T21:55:07.715Z,182.80
2023-11-27T21:58:34.425Z,172.40
2023-11-27T22:02:00.759Z,183.90
2023-11-27T22:05:29.299Z,178.50
2023-11-27T22:08:55.949Z,173.50
2023-11-27T22:12:22.543Z,186.40
2023-11-27T22:15:49.120Z,170.10
2023-11-27T22:19:16.001Z,163.20
2023-11-27T22:22:44.427Z,154.90
2023-11-27T22:26:10.882Z,158.40
2023-11-27T22:29:38.201Z,135.10
2023-11-27T22:33:04.873Z,148.70
2023-11-27T22:36:30.946Z,225.20
2023-11-27T22:39:57.164Z,166.70
2023-11-27T22:43:23.756Z,125.10
2023-11-27T22:46:49.862Z,164.70
2023-11-27T22:50:16.337Z,98.20
2023-11-27T22:53:42.937Z,91.10
2023-11-27T22:57:10.130Z,98.00
2023-11-27T23:00:36.523Z,113.70
2023-11-27T23:04:03.066Z,106.60
2023-11-27T23:07:31.474Z,89.20
2023-11-27T23:11:01.472Z,103.60
2023-11-27T23:14:27.779Z,125.30
2023-11-27T23:17:53.902Z,136.40
2023-11-27T23:21:20.209Z,94.90
2023-11-27T23:24:46.939Z,89.20
2023-11-27T23:28:12.847Z,78.50
2023-11-27T23:31:39.441Z,111.30
2023-11-27T23:35:06.135Z,96.10
2023-11-27T23:38:32.800Z,77.50
2023-11-27T23:41:59.491Z,81.30
2023-11-27T23:45:25.937Z,61.00
2023-11-27T23:48:54.223Z,74.40
2023-11-27T23:52:20.149Z,68.10
2023-11-27T23:55:47.479Z,55.10
2023-11-27T23:59:14.413Z,72.50
